sensor_id;sensor_type;location;lat;lon;timestamp;P1;durP1;ratioP1;P2;durP2;ratioP2
40781;SDS011;26493;51.938;7.626;2024-02-23T00:00:30;14.70;;;11.45;;
40781;SDS011;26493;51.938;7.626;2024-02-23T00:02:56;16.52;;;13.02;;
40781;SDS011;26493;51.938;7.626;2024-02-23T00:05:23;20.33;;;18.42;;
40781;SDS011;26493;51.938;7.626;2024-02-23T00:07:49;26.10;;;23.90;;
40781;SDS011;26493;51.938;7.626;2024-02-23T00:10:15;26.48;;;24.23;;
40781;SDS011;26493;51.938;7.626;2024-02-23T00:12:41;26.42;;;24.23;;
40781;SDS011;26493;51.938;7.626;2024-02-23T00:15:08;28.75;;;26.45;;
40781;SDS011;26493;51.938;7.626;2024-02-23T00:17:35;28.80;;;26.50;;
40781;SDS011;26493;51.938;7.626;2024-02-23T00:20:00;28.05;;;25.75;;
40781;SDS011;26493;51.938;7.626;2024-02-23T00:22:26;28.25;;;25.95;;
40781;SDS011;26493;51.938;7.626;2024-02-23T00:24:52;25.70;;;23.60;;
40781;SDS011;26493;51.938;7.626;2024-02-23T00:27:18;25.20;;;22.83;;
40781;SDS011;26493;51.938;7.626;2024-02-23T00:29:44;25.55;;;23.45;;
40781;SDS011;26493;51.938;7.626;2024-02-23T00:32:10;30.20;;;27.80;;
40781;SDS011;26493;51.938;7.626;2024-02-23T00:34:37;29.40;;;27.10;;
40781;SDS011;26493;51.938;7.626;2024-02-23T00:37:03;27.48;;;25.27;;
40781;SDS011;26493;51.938;7.626;2024-02-23T00:39:30;26.55;;;24.35;;
40781;SDS011;26493;51.938;7.626;2024-02-23T00:41:57;26.17;;;23.98;;
40781;SDS011;26493;51.938;7.626;2024-02-23T00:44:23;21.63;;;19.73;;
40781;SDS011;26493;51.938;7.626;2024-02-23T00:46:49;20.52;;;18.63;;
40781;SDS011;26493;51.938;7.626;2024-02-23T00:49:15;20.58;;;18.67;;
40781;SDS011;26493;51.938;7.626;2024-02-23T00:51:41;21.15;;;19.25;;
40781;SDS011;26493;51.938;7.626;2024-02-23T00:54:07;19.92;;;18.02;;
40781;SDS011;26493;51.938;7.626;2024-02-23T00:56:34;18.48;;;16.67;;
40781;SDS011;26493;51.938;7.626;2024-02-23T00:59:00;20.58;;;18.67;;
40781;SDS011;26493;51.938;7.626;2024-02-23T01:01:26;20.10;;;18.20;;
40781;SDS011;26493;51.938;7.626;2024-02-23T01:03:53;19.50;;;17.70;;
40781;SDS011;26493;51.938;7.626;2024-02-23T01:06:19;18.65;;;16.85;;
40781;SDS011;26493;51.938;7.626;2024-02-23T01:08:45;18.52;;;16.73;;
40781;SDS011;26493;51.938;7.626;2024-02-23T01:11:11;18.38;;;16.58;;
40781;SDS011;26493;51.938;7.626;2024-02-23T01:13:37;18.40;;;16.60;;
40781;SDS011;26493;51.938;7.626;2024-02-23T01:16:03;18.00;;;16.20;;
40781;SDS011;26493;51.938;7.626;2024-02-23T01:18:29;17.95;;;16.15;;
40781;SDS011;26493;51.938;7.626;2024-02-23T01:20:56;17.17;;;15.48;;
40781;SDS011;26493;51.938;7.626;2024-02-23T01:23:22;16.65;;;14.95;;
40781;SDS011;26493;51.938;7.626;2024-02-23T01:25:48;16.60;;;14.90;;
40781;SDS011;26493;51.938;7.626;2024-02-23T01:28:14;16.40;;;14.70;;
40781;SDS011;26493;51.938;7.626;2024-02-23T01:30:40;15.90;;;14.20;;
40781;SDS011;26493;51.938;7.626;2024-02-23T01:33:06;16.77;;;14.98;;
40781;SDS011;26493;51.938;7.626;2024-02-23T01:35:32;15.95;;;14.25;;
40781;SDS011;26493;51.938;7.626;2024-02-23T01:37:58;15.60;;;13.90;;
40781;SDS011;26493;51.938;7.626;2024-02-23T01:40:24;16.45;;;14.50;;
40781;SDS011;26493;51.938;7.626;2024-02-23T01:43:06;15.60;;;13.90;;
40781;SDS011;26493;51.938;7.626;2024-02-23T01:45:33;15.40;;;13.68;;
40781;SDS011;26493;51.938;7.626;2024-02-23T01:47:59;15.20;;;13.30;;
40781;SDS011;26493;51.938;7.626;2024-02-23T01:50:28;15.27;;;13.20;;
40781;SDS011;26493;51.938;7.626;2024-02-23T01:52:58;15.15;;;12.73;;
40781;SDS011;26493;51.938;7.626;2024-02-23T01:55:25;14.52;;;11.32;;
40781;SDS011;26493;51.938;7.626;2024-02-23T01:57:51;14.50;;;11.23;;
40781;SDS011;26493;51.938;7.626;2024-02-23T02:00:18;14.90;;;12.02;;
40781;SDS011;26493;51.938;7.626;2024-02-23T02:02:45;14.23;;;10.52;;
40781;SDS011;26493;51.938;7.626;2024-02-23T02:05:12;14.45;;;9.18;;
40781;SDS011;26493;51.938;7.626;2024-02-23T02:07:38;13.80;;;9.25;;
40781;SDS011;26493;51.938;7.626;2024-02-23T02:10:06;13.88;;;9.32;;
40781;SDS011;26493;51.938;7.626;2024-02-23T02:12:34;13.80;;;9.23;;
40781;SDS011;26493;51.938;7.626;2024-02-23T02:15:00;30.55;;;9.82;;
40781;SDS011;26493;51.938;7.626;2024-02-23T02:17:29;13.45;;;8.30;;
40781;SDS011;26493;51.938;7.626;2024-02-23T02:19:56;13.50;;;8.00;;
40781;SDS011;26493;51.938;7.626;2024-02-23T02:22:25;13.40;;;8.00;;
40781;SDS011;26493;51.938;7.626;2024-02-23T02:24:51;13.50;;;8.20;;
40781;SDS011;26493;51.938;7.626;2024-02-23T02:27:16;13.60;;;8.60;;
40781;SDS011;26493;51.938;7.626;2024-02-23T02:29:42;13.43;;;8.27;;
40781;SDS011;26493;51.938;7.626;2024-02-23T02:32:08;13.52;;;8.15;;
40781;SDS011;26493;51.938;7.626;2024-02-23T02:34:34;13.95;;;8.52;;
40781;SDS011;26493;51.938;7.626;2024-02-23T02:37:00;13.43;;;8.00;;
40781;SDS011;26493;51.938;7.626;2024-02-23T02:39:27;13.35;;;8.00;;
40781;SDS011;26493;51.938;7.626;2024-02-23T02:41:53;13.50;;;8.27;;
40781;SDS011;26493;51.938;7.626;2024-02-23T02:44:19;13.35;;;8.25;;
40781;SDS011;26493;51.938;7.626;2024-02-23T02:46:45;13.27;;;7.95;;
40781;SDS011;26493;51.938;7.626;2024-02-23T02:49:11;13.73;;;8.23;;
40781;SDS011;26493;51.938;7.626;2024-02-23T02:51:37;13.35;;;7.97;;
40781;SDS011;26493;51.938;7.626;2024-02-23T02:54:03;13.38;;;8.00;;
40781;SDS011;26493;51.938;7.626;2024-02-23T02:56:29;12.88;;;7.47;;
40781;SDS011;26493;51.938;7.626;2024-02-23T02:58:55;13.40;;;8.00;;
40781;SDS011;26493;51.938;7.626;2024-02-23T03:01:21;13.15;;;7.78;;
40781;SDS011;26493;51.938;7.626;2024-02-23T03:03:47;13.27;;;7.88;;
40781;SDS011;26493;51.938;7.626;2024-02-23T03:06:14;15.52;;;8.02;;
40781;SDS011;26493;51.938;7.626;2024-02-23T03:08:42;13.50;;;7.90;;
40781;SDS011;26493;51.938;7.626;2024-02-23T03:11:08;12.65;;;7.35;;
40781;SDS011;26493;51.938;7.626;2024-02-23T03:13:34;12.68;;;7.40;;
40781;SDS011;26493;51.938;7.626;2024-02-23T03:16:00;13.00;;;7.55;;
40781;SDS011;26493;51.938;7.626;2024-02-23T03:18:26;14.35;;;8.18;;
40781;SDS011;26493;51.938;7.626;2024-02-23T03:20:54;12.70;;;7.40;;
40781;SDS011;26493;51.938;7.626;2024-02-23T03:23:20;29.35;;;8.10;;
40781;SDS011;26493;51.938;7.626;2024-02-23T03:25:46;12.82;;;7.50;;
40781;SDS011;26493;51.938;7.626;2024-02-23T03:28:12;12.75;;;7.45;;
40781;SDS011;26493;51.938;7.626;2024-02-23T03:30:38;13.70;;;8.18;;
40781;SDS011;26493;51.938;7.626;2024-02-23T03:33:04;13.40;;;7.68;;
40781;SDS011;26493;51.938;7.626;2024-02-23T03:35:30;12.73;;;7.30;;
40781;SDS011;26493;51.938;7.626;2024-02-23T03:37:56;12.30;;;7.13;;
40781;SDS011;26493;51.938;7.626;2024-02-23T03:40:22;12.65;;;7.30;;
40781;SDS011;26493;51.938;7.626;2024-02-23T03:42:48;13.10;;;7.70;;
40781;SDS011;26493;51.938;7.626;2024-02-23T03:45:14;13.07;;;7.65;;
40781;SDS011;26493;51.938;7.626;2024-02-23T03:47:40;15.88;;;9.00;;
40781;SDS011;26493;51.938;7.626;2024-02-23T03:50:06;13.27;;;7.90;;
40781;SDS011;26493;51.938;7.626;2024-02-23T03:52:32;13.25;;;7.82;;
40781;SDS011;26493;51.938;7.626;2024-02-23T03:54:58;13.25;;;7.88;;
40781;SDS011;26493;51.938;7.626;2024-02-23T03:57:24;13.13;;;7.72;;
40781;SDS011;26493;51.938;7.626;2024-02-23T03:59:51;13.30;;;8.20;;
40781;SDS011;26493;51.938;7.626;2024-02-23T04:02:18;13.23;;;7.90;;
40781;SDS011;26493;51.938;7.626;2024-02-23T04:04:44;13.38;;;8.07;;
40781;SDS011;26493;51.938;7.626;2024-02-23T04:07:10;13.40;;;8.10;;
40781;SDS011;26493;51.938;7.626;2024-02-23T04:09:36;13.40;;;8.10;;
40781;SDS011;26493;51.938;7.626;2024-02-23T04:12:02;27.50;;;8.98;;
40781;SDS011;26493;51.938;7.626;2024-02-23T04:14:28;12.80;;;7.47;;
40781;SDS011;26493;51.938;7.626;2024-02-23T04:16:54;13.20;;;7.63;;
40781;SDS011;26493;51.938;7.626;2024-02-23T04:19:20;13.00;;;7.70;;
40781;SDS011;26493;51.938;7.626;2024-02-23T04:21:46;12.60;;;7.30;;
40781;SDS011;26493;51.938;7.626;2024-02-23T04:24:12;13.70;;;7.63;;
40781;SDS011;26493;51.938;7.626;2024-02-23T04:26:38;13.10;;;7.60;;
40781;SDS011;26493;51.938;7.626;2024-02-23T04:29:04;12.27;;;7.13;;
40781;SDS011;26493;51.938;7.626;2024-02-23T04:31:30;12.63;;;7.32;;
40781;SDS011;26493;51.938;7.626;2024-02-23T04:33:56;12.50;;;7.30;;
40781;SDS011;26493;51.938;7.626;2024-02-23T04:36:22;12.63;;;7.30;;
40781;SDS011;26493;51.938;7.626;2024-02-23T04:38:48;12.73;;;7.55;;
40781;SDS011;26493;51.938;7.626;2024-02-23T04:41:13;13.45;;;8.05;;
40781;SDS011;26493;51.938;7.626;2024-02-23T04:43:39;12.75;;;7.45;;
40781;SDS011;26493;51.938;7.626;2024-02-23T04:46:05;13.10;;;7.70;;
40781;SDS011;26493;51.938;7.626;2024-02-23T04:48:31;12.55;;;7.32;;
40781;SDS011;26493;51.938;7.626;2024-02-23T04:50:58;12.30;;;7.20;;
40781;SDS011;26493;51.938;7.626;2024-02-23T04:53:24;12.20;;;7.10;;
40781;SDS011;26493;51.938;7.626;2024-02-23T04:55:50;12.45;;;7.20;;
40781;SDS011;26493;51.938;7.626;2024-02-23T04:58:16;12.43;;;7.32;;
40781;SDS011;26493;51.938;7.626;2024-02-23T05:00:42;12.80;;;7.40;;
40781;SDS011;26493;51.938;7.626;2024-02-23T05:03:08;12.55;;;7.32;;
40781;SDS011;26493;51.938;7.626;2024-02-23T05:05:34;13.15;;;7.80;;
40781;SDS011;26493;51.938;7.626;2024-02-23T05:08:01;12.98;;;7.70;;
40781;SDS011;26493;51.938;7.626;2024-02-23T05:10:27;13.60;;;7.78;;
40781;SDS011;26493;51.938;7.626;2024-02-23T05:12:53;12.80;;;7.53;;
40781;SDS011;26493;51.938;7.626;2024-02-23T05:15:20;12.20;;;7.10;;
40781;SDS011;26493;51.938;7.626;2024-02-23T05:17:46;13.50;;;8.02;;
40781;SDS011;26493;51.938;7.626;2024-02-23T05:20:12;13.07;;;7.70;;
40781;SDS011;26493;51.938;7.626;2024-02-23T05:22:39;12.55;;;7.30;;
40781;SDS011;26493;51.938;7.626;2024-02-23T05:25:05;12.75;;;7.40;;
40781;SDS011;26493;51.938;7.626;2024-02-23T05:27:31;13.23;;;7.90;;
40781;SDS011;26493;51.938;7.626;2024-02-23T05:29:57;12.65;;;7.38;;
40781;SDS011;26493;51.938;7.626;2024-02-23T05:32:23;13.13;;;7.63;;
40781;SDS011;26493;51.938;7.626;2024-02-23T05:34:49;12.63;;;7.38;;
40781;SDS011;26493;51.938;7.626;2024-02-23T05:37:18;13.05;;;7.70;;
40781;SDS011;26493;51.938;7.626;2024-02-23T05:39:44;13.27;;;7.80;;
40781;SDS011;26493;51.938;7.626;2024-02-23T05:42:11;13.18;;;7.78;;
40781;SDS011;26493;51.938;7.626;2024-02-23T05:44:37;13.10;;;7.70;;
40781;SDS011;26493;51.938;7.626;2024-02-23T05:47:03;12.70;;;7.55;;
40781;SDS011;26493;51.938;7.626;2024-02-23T05:49:29;12.55;;;7.30;;
40781;SDS011;26493;51.938;7.626;2024-02-23T05:51:55;12.52;;;7.30;;
40781;SDS011;26493;51.938;7.626;2024-02-23T05:54:21;12.90;;;7.18;;
40781;SDS011;26493;51.938;7.626;2024-02-23T05:56:48;13.55;;;7.90;;
40781;SDS011;26493;51.938;7.626;2024-02-23T05:59:14;12.75;;;7.40;;
40781;SDS011;26493;51.938;7.626;2024-02-23T06:01:40;17.27;;;8.52;;
40781;SDS011;26493;51.938;7.626;2024-02-23T06:04:06;13.00;;;7.60;;
40781;SDS011;26493;51.938;7.626;2024-02-23T06:06:32;19.52;;;7.90;;
40781;SDS011;26493;51.938;7.626;2024-02-23T06:08:58;12.60;;;7.32;;
40781;SDS011;26493;51.938;7.626;2024-02-23T06:11:25;12.48;;;7.32;;
40781;SDS011;26493;51.938;7.626;2024-02-23T06:13:51;12.70;;;7.50;;
40781;SDS011;26493;51.938;7.626;2024-02-23T06:16:17;12.95;;;7.55;;
40781;SDS011;26493;51.938;7.626;2024-02-23T06:18:43;13.15;;;7.80;;
40781;SDS011;26493;51.938;7.626;2024-02-23T06:23:38;13.05;;;7.60;;
40781;SDS011;26493;51.938;7.626;2024-02-23T06:26:04;12.20;;;7.10;;
40781;SDS011;26493;51.938;7.626;2024-02-23T06:28:31;11.25;;;6.60;;
40781;SDS011;26493;51.938;7.626;2024-02-23T06:30:57;11.57;;;6.78;;
40781;SDS011;26493;51.938;7.626;2024-02-23T06:33:23;11.65;;;6.82;;
40781;SDS011;26493;51.938;7.626;2024-02-23T06:35:50;12.38;;;7.20;;
40781;SDS011;26493;51.938;7.626;2024-02-23T06:38:17;39.35;;;7.88;;
40781;SDS011;26493;51.938;7.626;2024-02-23T06:40:43;11.57;;;6.75;;
40781;SDS011;26493;51.938;7.626;2024-02-23T06:43:09;13.30;;;6.70;;
40781;SDS011;26493;51.938;7.626;2024-02-23T06:45:35;11.70;;;6.90;;
40781;SDS011;26493;51.938;7.626;2024-02-23T06:48:01;11.60;;;6.80;;
40781;SDS011;26493;51.938;7.626;2024-02-23T06:50:28;11.23;;;6.57;;
40781;SDS011;26493;51.938;7.626;2024-02-23T06:52:54;11.20;;;6.60;;
40781;SDS011;26493;51.938;7.626;2024-02-23T06:55:20;11.57;;;6.80;;
40781;SDS011;26493;51.938;7.626;2024-02-23T06:57:46;11.15;;;6.60;;
40781;SDS011;26493;51.938;7.626;2024-02-23T07:00:12;10.80;;;6.35;;
40781;SDS011;26493;51.938;7.626;2024-02-23T07:02:38;11.27;;;6.60;;
40781;SDS011;26493;51.938;7.626;2024-02-23T07:05:04;11.20;;;6.60;;
40781;SDS011;26493;51.938;7.626;2024-02-23T07:07:31;11.20;;;6.60;;
40781;SDS011;26493;51.938;7.626;2024-02-23T07:09:58;11.35;;;6.60;;
40781;SDS011;26493;51.938;7.626;2024-02-23T07:12:24;10.80;;;6.40;;
40781;SDS011;26493;51.938;7.626;2024-02-23T07:17:18;11.48;;;6.70;;
40781;SDS011;26493;51.938;7.626;2024-02-23T07:19:44;11.35;;;6.70;;
40781;SDS011;26493;51.938;7.626;2024-02-23T07:22:10;10.40;;;6.13;;
40781;SDS011;26493;51.938;7.626;2024-02-23T07:24:42;10.95;;;6.60;;
40781;SDS011;26493;51.938;7.626;2024-02-23T07:27:08;11.70;;;6.82;;
40781;SDS011;26493;51.938;7.626;2024-02-23T07:29:34;11.90;;;6.97;;
40781;SDS011;26493;51.938;7.626;2024-02-23T07:32:00;11.95;;;6.97;;
40781;SDS011;26493;51.938;7.626;2024-02-23T07:34:27;12.82;;;8.68;;
40781;SDS011;26493;51.938;7.626;2024-02-23T07:36:53;12.48;;;7.30;;
40781;SDS011;26493;51.938;7.626;2024-02-23T07:39:19;12.27;;;7.15;;
40781;SDS011;26493;51.938;7.626;2024-02-23T07:41:46;12.50;;;7.30;;
40781;SDS011;26493;51.938;7.626;2024-02-23T07:44:12;12.30;;;7.22;;
40781;SDS011;26493;51.938;7.626;2024-02-23T07:46:38;12.40;;;7.20;;
40781;SDS011;26493;51.938;7.626;2024-02-23T07:49:05;12.20;;;7.10;;
40781;SDS011;26493;51.938;7.626;2024-02-23T07:51:31;12.02;;;7.25;;
40781;SDS011;26493;51.938;7.626;2024-02-23T07:53:57;12.00;;;7.00;;
40781;SDS011;26493;51.938;7.626;2024-02-23T07:56:23;11.65;;;6.90;;
40781;SDS011;26493;51.938;7.626;2024-02-23T07:58:49;11.98;;;6.97;;
40781;SDS011;26493;51.938;7.626;2024-02-23T08:01:15;11.77;;;6.88;;
40781;SDS011;26493;51.938;7.626;2024-02-23T08:03:41;15.40;;;7.53;;
40781;SDS011;26493;51.938;7.626;2024-02-23T08:06:07;12.15;;;7.07;;
40781;SDS011;26493;51.938;7.626;2024-02-23T08:08:33;11.57;;;6.80;;
40781;SDS011;26493;51.938;7.626;2024-02-23T08:11:01;11.95;;;7.45;;
40781;SDS011;26493;51.938;7.626;2024-02-23T08:13:27;11.80;;;6.90;;
40781;SDS011;26493;51.938;7.626;2024-02-23T08:15:53;11.65;;;6.80;;
40781;SDS011;26493;51.938;7.626;2024-02-23T08:18:19;12.57;;;8.15;;
40781;SDS011;26493;51.938;7.626;2024-02-23T08:20:47;11.47;;;6.70;;
40781;SDS011;26493;51.938;7.626;2024-02-23T08:23:13;12.00;;;7.00;;
40781;SDS011;26493;51.938;7.626;2024-02-23T08:25:39;11.60;;;6.80;;
40781;SDS011;26493;51.938;7.626;2024-02-23T08:28:05;12.13;;;7.03;;
40781;SDS011;26493;51.938;7.626;2024-02-23T08:30:31;11.45;;;6.70;;
40781;SDS011;26493;51.938;7.626;2024-02-23T08:32:57;11.60;;;6.80;;
40781;SDS011;26493;51.938;7.626;2024-02-23T08:35:23;11.80;;;6.90;;
40781;SDS011;26493;51.938;7.626;2024-02-23T08:37:49;12.27;;;7.15;;
40781;SDS011;26493;51.938;7.626;2024-02-23T08:40:15;12.30;;;7.20;;
40781;SDS011;26493;51.938;7.626;2024-02-23T08:42:41;11.85;;;6.90;;
40781;SDS011;26493;51.938;7.626;2024-02-23T08:45:08;11.90;;;6.93;;
40781;SDS011;26493;51.938;7.626;2024-02-23T08:47:37;12.60;;;7.18;;
40781;SDS011;26493;51.938;7.626;2024-02-23T08:50:03;12.60;;;7.95;;
40781;SDS011;26493;51.938;7.626;2024-02-23T08:52:29;11.70;;;6.80;;
40781;SDS011;26493;51.938;7.626;2024-02-23T08:54:55;11.35;;;6.63;;
40781;SDS011;26493;51.938;7.626;2024-02-23T08:57:21;12.20;;;7.15;;
40781;SDS011;26493;51.938;7.626;2024-02-23T08:59:48;12.07;;;7.05;;
40781;SDS011;26493;51.938;7.626;2024-02-23T09:02:14;11.52;;;6.72;;
40781;SDS011;26493;51.938;7.626;2024-02-23T09:04:40;11.25;;;6.57;;
40781;SDS011;26493;51.938;7.626;2024-02-23T09:07:06;11.23;;;6.57;;
40781;SDS011;26493;51.938;7.626;2024-02-23T09:09:32;12.35;;;7.35;;
40781;SDS011;26493;51.938;7.626;2024-02-23T09:11:58;12.07;;;7.07;;
40781;SDS011;26493;51.938;7.626;2024-02-23T09:14:24;11.57;;;6.78;;
40781;SDS011;26493;51.938;7.626;2024-02-23T09:16:51;11.68;;;6.80;;
40781;SDS011;26493;51.938;7.626;2024-02-23T09:19:18;11.82;;;6.88;;
40781;SDS011;26493;51.938;7.626;2024-02-23T09:21:44;12.88;;;7.35;;
40781;SDS011;26493;51.938;7.626;2024-02-23T09:24:10;11.80;;;6.90;;
40781;SDS011;26493;51.938;7.626;2024-02-23T09:26:36;12.40;;;7.20;;
40781;SDS011;26493;51.938;7.626;2024-02-23T09:29:02;12.30;;;7.13;;
40781;SDS011;26493;51.938;7.626;2024-02-23T09:31:28;12.23;;;7.13;;
40781;SDS011;26493;51.938;7.626;2024-02-23T09:33:55;12.25;;;7.13;;
40781;SDS011;26493;51.938;7.626;2024-02-23T09:36:21;12.30;;;7.18;;
40781;SDS011;26493;51.938;7.626;2024-02-23T09:38:47;12.43;;;7.20;;
40781;SDS011;26493;51.938;7.626;2024-02-23T09:41:17;11.95;;;7.20;;
40781;SDS011;26493;51.938;7.626;2024-02-23T09:43:45;12.60;;;7.30;;
40781;SDS011;26493;51.938;7.626;2024-02-23T09:46:13;12.70;;;7.45;;
40781;SDS011;26493;51.938;7.626;2024-02-23T09:48:40;12.50;;;7.20;;
40781;SDS011;26493;51.938;7.626;2024-02-23T09:51:06;12.77;;;7.40;;
40781;SDS011;26493;51.938;7.626;2024-02-23T09:53:33;11.90;;;6.90;;
40781;SDS011;26493;51.938;7.626;2024-02-23T09:56:00;12.50;;;7.28;;
40781;SDS011;26493;51.938;7.626;2024-02-23T09:58:27;12.00;;;7.00;;
40781;SDS011;26493;51.938;7.626;2024-02-23T10:00:55;12.30;;;7.20;;
40781;SDS011;26493;51.938;7.626;2024-02-23T10:03:22;12.48;;;7.25;;
40781;SDS011;26493;51.938;7.626;2024-02-23T10:05:51;12.43;;;7.28;;
40781;SDS011;26493;51.938;7.626;2024-02-23T10:08:17;12.40;;;7.20;;
40781;SDS011;26493;51.938;7.626;2024-02-23T10:10:45;12.85;;;7.40;;
40781;SDS011;26493;51.938;7.626;2024-02-23T10:13:11;12.73;;;7.35;;
40781;SDS011;26493;51.938;7.626;2024-02-23T10:15:37;59.03;;;14.05;;
40781;SDS011;26493;51.938;7.626;2024-02-23T10:18:04;12.70;;;7.40;;
40781;SDS011;26493;51.938;7.626;2024-02-23T10:20:30;12.52;;;7.30;;
40781;SDS011;26493;51.938;7.626;2024-02-23T10:22:56;12.27;;;7.18;;
40781;SDS011;26493;51.938;7.626;2024-02-23T10:25:22;11.98;;;7.05;;
40781;SDS011;26493;51.938;7.626;2024-02-23T10:27:48;12.15;;;7.07;;
40781;SDS011;26493;51.938;7.626;2024-02-23T10:30:14;12.55;;;7.30;;
40781;SDS011;26493;51.938;7.626;2024-02-23T10:32:40;12.50;;;7.40;;
40781;SDS011;26493;51.938;7.626;2024-02-23T10:35:14;12.18;;;7.10;;
40781;SDS011;26493;51.938;7.626;2024-02-23T10:37:43;12.43;;;7.20;;
40781;SDS011;26493;51.938;7.626;2024-02-23T10:40:11;12.05;;;7.00;;
40781;SDS011;26493;51.938;7.626;2024-02-23T10:42:38;11.82;;;6.90;;
40781;SDS011;26493;51.938;7.626;2024-02-23T10:45:06;15.13;;;8.20;;
40781;SDS011;26493;51.938;7.626;2024-02-23T10:47:33;12.02;;;6.97;;
40781;SDS011;26493;51.938;7.626;2024-02-23T10:50:02;13.82;;;7.95;;
40781;SDS011;26493;51.938;7.626;2024-02-23T10:52:28;11.93;;;6.95;;
40781;SDS011;26493;51.938;7.626;2024-02-23T10:54:54;12.50;;;7.30;;
40781;SDS011;26493;51.938;7.626;2024-02-23T10:57:21;12.90;;;7.65;;
40781;SDS011;26493;51.938;7.626;2024-02-23T10:59:47;12.80;;;7.35;;
40781;SDS011;26493;51.938;7.626;2024-02-23T11:02:17;12.50;;;7.25;;
40781;SDS011;26493;51.938;7.626;2024-02-23T11:04:47;12.13;;;7.00;;
40781;SDS011;26493;51.938;7.626;2024-02-23T11:07:20;12.73;;;7.38;;
40781;SDS011;26493;51.938;7.626;2024-02-23T11:09:53;12.30;;;7.13;;
40781;SDS011;26493;51.938;7.626;2024-02-23T11:12:25;12.65;;;7.35;;
40781;SDS011;26493;51.938;7.626;2024-02-23T11:14:51;12.45;;;7.25;;
40781;SDS011;26493;51.938;7.626;2024-02-23T11:17:22;12.60;;;7.28;;
40781;SDS011;26493;51.938;7.626;2024-02-23T11:19:51;12.15;;;7.05;;
40781;SDS011;26493;51.938;7.626;2024-02-23T11:22:23;12.23;;;7.13;;
40781;SDS011;26493;51.938;7.626;2024-02-23T11:24:50;12.38;;;7.28;;
40781;SDS011;26493;51.938;7.626;2024-02-23T11:27:16;12.05;;;7.07;;
40781;SDS011;26493;51.938;7.626;2024-02-23T11:29:43;12.00;;;7.00;;
40781;SDS011;26493;51.938;7.626;2024-02-23T11:32:14;12.20;;;7.13;;
40781;SDS011;26493;51.938;7.626;2024-02-23T11:34:40;12.50;;;7.30;;
40781;SDS011;26493;51.938;7.626;2024-02-23T11:37:09;12.40;;;7.20;;
40781;SDS011;26493;51.938;7.626;2024-02-23T11:39:38;14.38;;;8.25;;
40781;SDS011;26493;51.938;7.626;2024-02-23T11:42:08;13.27;;;7.70;;
40781;SDS011;26493;51.938;7.626;2024-02-23T11:44:34;12.90;;;7.50;;
40781;SDS011;26493;51.938;7.626;2024-02-23T11:47:00;12.60;;;7.95;;
40781;SDS011;26493;51.938;7.626;2024-02-23T11:49:29;11.90;;;6.90;;
40781;SDS011;26493;51.938;7.626;2024-02-23T11:51:56;12.05;;;7.00;;
40781;SDS011;26493;51.938;7.626;2024-02-23T11:54:22;12.68;;;7.32;;
40781;SDS011;26493;51.938;7.626;2024-02-23T11:56:49;11.85;;;6.90;;
40781;SDS011;26493;51.938;7.626;2024-02-23T11:59:17;11.95;;;7.00;;
40781;SDS011;26493;51.938;7.626;2024-02-23T12:01:43;12.05;;;7.00;;
40781;SDS011;26493;51.938;7.626;2024-02-23T12:04:09;11.80;;;6.88;;
40781;SDS011;26493;51.938;7.626;2024-02-23T12:06:35;11.80;;;6.90;;
40781;SDS011;26493;51.938;7.626;2024-02-23T12:09:01;12.07;;;7.00;;
40781;SDS011;26493;51.938;7.626;2024-02-23T12:11:27;12.55;;;7.25;;
40781;SDS011;26493;51.938;7.626;2024-02-23T12:13:53;12.27;;;7.15;;
40781;SDS011;26493;51.938;7.626;2024-02-23T12:16:21;12.65;;;7.32;;
40781;SDS011;26493;51.938;7.626;2024-02-23T12:18:52;12.40;;;7.20;;
40781;SDS011;26493;51.938;7.626;2024-02-23T12:21:20;11.93;;;7.00;;
40781;SDS011;26493;51.938;7.626;2024-02-23T12:23:48;12.07;;;7.22;;
40781;SDS011;26493;51.938;7.626;2024-02-23T12:26:16;14.75;;;7.18;;
40781;SDS011;26493;51.938;7.626;2024-02-23T12:28:42;11.80;;;6.90;;
40781;SDS011;26493;51.938;7.626;2024-02-23T12:31:08;12.02;;;7.00;;
40781;SDS011;26493;51.938;7.626;2024-02-23T12:33:35;11.68;;;6.80;;
40781;SDS011;26493;51.938;7.626;2024-02-23T12:36:01;11.50;;;6.70;;
40781;SDS011;26493;51.938;7.626;2024-02-23T12:38:28;12.88;;;7.88;;
40781;SDS011;26493;51.938;7.626;2024-02-23T12:40:54;12.20;;;7.38;;
40781;SDS011;26493;51.938;7.626;2024-02-23T12:43:20;12.50;;;7.30;;
40781;SDS011;26493;51.938;7.626;2024-02-23T12:45:49;12.52;;;7.28;;
40781;SDS011;26493;51.938;7.626;2024-02-23T12:48:15;13.07;;;7.10;;
40781;SDS011;26493;51.938;7.626;2024-02-23T12:50:42;11.55;;;6.72;;
40781;SDS011;26493;51.938;7.626;2024-02-23T12:53:09;11.97;;;7.00;;
40781;SDS011;26493;51.938;7.626;2024-02-23T12:55:35;12.38;;;7.10;;
40781;SDS011;26493;51.938;7.626;2024-02-23T12:58:02;12.77;;;7.63;;
40781;SDS011;26493;51.938;7.626;2024-02-23T13:00:30;11.73;;;6.85;;
40781;SDS011;26493;51.938;7.626;2024-02-23T13:02:56;12.07;;;7.10;;
40781;SDS011;26493;51.938;7.626;2024-02-23T13:05:22;11.88;;;7.00;;
40781;SDS011;26493;51.938;7.626;2024-02-23T13:07:48;11.75;;;6.80;;
40781;SDS011;26493;51.938;7.626;2024-02-23T13:10:14;12.10;;;7.05;;
40781;SDS011;26493;51.938;7.626;2024-02-23T13:12:43;12.10;;;7.03;;
40781;SDS011;26493;51.938;7.626;2024-02-23T13:15:09;12.90;;;7.82;;
40781;SDS011;26493;51.938;7.626;2024-02-23T13:17:35;12.15;;;7.10;;
40781;SDS011;26493;51.938;7.626;2024-02-23T13:20:01;11.68;;;6.90;;
40781;SDS011;26493;51.938;7.626;2024-02-23T13:22:27;12.10;;;7.03;;
40781;SDS011;26493;51.938;7.626;2024-02-23T13:24:53;12.70;;;7.38;;
40781;SDS011;26493;51.938;7.626;2024-02-23T13:27:19;12.15;;;7.07;;
40781;SDS011;26493;51.938;7.626;2024-02-23T13:29:45;12.50;;;7.30;;
40781;SDS011;26493;51.938;7.626;2024-02-23T13:32:11;12.20;;;7.07;;
40781;SDS011;26493;51.938;7.626;2024-02-23T13:34:37;12.30;;;7.18;;
40781;SDS011;26493;51.938;7.626;2024-02-23T13:37:03;12.27;;;7.10;;
40781;SDS011;26493;51.938;7.626;2024-02-23T13:39:29;13.10;;;7.65;;
40781;SDS011;26493;51.938;7.626;2024-02-23T13:41:55;12.98;;;7.55;;
40781;SDS011;26493;51.938;7.626;2024-02-23T13:44:21;12.77;;;7.45;;
40781;SDS011;26493;51.938;7.626;2024-02-23T13:46:47;13.15;;;7.80;;
40781;SDS011;26493;51.938;7.626;2024-02-23T13:49:13;12.57;;;7.32;;
40781;SDS011;26493;51.938;7.626;2024-02-23T13:51:39;13.07;;;7.60;;
40781;SDS011;26493;51.938;7.626;2024-02-23T13:54:05;13.00;;;7.60;;
40781;SDS011;26493;51.938;7.626;2024-02-23T13:56:31;12.77;;;7.43;;
40781;SDS011;26493;51.938;7.626;2024-02-23T13:58:57;12.73;;;7.50;;
40781;SDS011;26493;51.938;7.626;2024-02-23T14:01:23;12.20;;;7.10;;
40781;SDS011;26493;51.938;7.626;2024-02-23T14:03:49;11.57;;;6.80;;
40781;SDS011;26493;51.938;7.626;2024-02-23T14:06:16;12.30;;;7.20;;
40781;SDS011;26493;51.938;7.626;2024-02-23T14:08:42;11.48;;;6.78;;
40781;SDS011;26493;51.938;7.626;2024-02-23T14:11:09;12.10;;;7.10;;
40781;SDS011;26493;51.938;7.626;2024-02-23T14:13:35;11.98;;;7.00;;
40781;SDS011;26493;51.938;7.626;2024-02-23T14:16:01;11.80;;;6.90;;
40781;SDS011;26493;51.938;7.626;2024-02-23T14:18:28;12.80;;;7.43;;
40781;SDS011;26493;51.938;7.626;2024-02-23T14:20:57;12.95;;;7.53;;
40781;SDS011;26493;51.938;7.626;2024-02-23T14:23:23;12.30;;;7.18;;
40781;SDS011;26493;51.938;7.626;2024-02-23T14:25:49;12.98;;;7.57;;
40781;SDS011;26493;51.938;7.626;2024-02-23T14:28:16;14.00;;;8.93;;
40781;SDS011;26493;51.938;7.626;2024-02-23T14:30:42;13.07;;;7.80;;
40781;SDS011;26493;51.938;7.626;2024-02-23T14:33:08;13.57;;;8.57;;